createdAt,value
2019-02-24T00:00:25.568Z,15.68
2019-02-24T00:02:57.037Z,18.52
2019-02-24T00:05:26.691Z,18.45
2019-02-24T00:07:55.974Z,15.20
2019-02-24T00:10:25.254Z,11.12
2019-02-24T00:12:54.537Z,16.80
2019-02-24T00:15:24.114Z,13.65
2019-02-24T00:17:53.394Z,14.60
2019-02-24T00:20:22.657Z,17.07
2019-02-24T00:22:51.950Z,16.62
2019-02-24T00:25:21.237Z,13.55
2019-02-24T00:27:50.517Z,16.25
2019-02-24T00:30:19.780Z,14.43
2019-02-24T00:32:49.066Z,17.02
2019-02-24T00:35:18.332Z,13.50
2019-02-24T00:37:47.622Z,13.53
2019-02-24T00:40:17.964Z,12.70
2019-02-24T00:42:48.336Z,13.53
2019-02-24T00:45:17.605Z,15.38
2019-02-24T00:47:46.933Z,16.45
2019-02-24T00:50:16.219Z,12.37
2019-02-24T00:52:45.502Z,14.40
2019-02-24T00:55:14.786Z,12.93
2019-02-24T00:57:44.074Z,13.95
2019-02-24T01:00:13.595Z,13.50
2019-02-24T01:02:44.108Z,12.98
2019-02-24T01:05:13.717Z,12.60
2019-02-24T01:07:43.007Z,13.98
2019-02-24T01:10:12.274Z,14.30
2019-02-24T01:12:41.838Z,14.60
2019-02-24T01:15:12.100Z,14.58
2019-02-24T01:17:41.664Z,12.30
2019-02-24T01:20:11.265Z,14.55
2019-02-24T01:22:40.861Z,13.62
2019-02-24T01:25:10.470Z,11.73
2019-02-24T01:27:39.988Z,12.95
2019-02-24T01:30:10.893Z,11.65
2019-02-24T01:32:40.425Z,12.43
2019-02-24T01:35:09.765Z,13.20
2019-02-24T01:37:39.044Z,12.98
2019-02-24T01:40:08.858Z,10.05
2019-02-24T01:42:38.142Z,12.13
2019-02-24T01:45:08.366Z,12.55
2019-02-24T01:47:37.648Z,13.55
2019-02-24T01:50:08.961Z,15.98
2019-02-24T01:52:38.237Z,12.35
2019-02-24T01:55:07.821Z,13.70
2019-02-24T01:57:38.459Z,11.22
2019-02-24T02:00:11.139Z,13.43
2019-02-24T02:02:40.433Z,11.85
2019-02-24T02:05:09.776Z,14.65
2019-02-24T02:07:39.338Z,11.95
2019-02-24T02:10:08.673Z,15.25
2019-02-24T02:12:38.255Z,13.60
2019-02-24T02:15:08.103Z,12.58
2019-02-24T02:17:37.385Z,10.30
2019-02-24T02:20:08.793Z,11.25
2019-02-24T02:22:38.358Z,11.80
2019-02-24T02:25:08.770Z,13.48
2019-02-24T02:27:38.053Z,11.90
2019-02-24T02:30:09.985Z,14.93
2019-02-24T02:32:40.641Z,10.90
2019-02-24T02:35:09.927Z,12.53
2019-02-24T02:37:39.198Z,11.80
2019-02-24T02:40:08.854Z,12.60
2019-02-24T02:42:38.162Z,13.48
2019-02-24T02:45:08.898Z,13.90
2019-02-24T02:47:38.500Z,11.35
2019-02-24T02:50:07.785Z,10.10
2019-02-24T02:52:37.309Z,11.53
2019-02-24T02:55:07.021Z,12.28
2019-02-24T02:57:36.361Z,10.63
2019-02-24T03:00:12.078Z,12.33
2019-02-24T03:02:42.603Z,13.20
2019-02-24T03:05:11.878Z,13.05
2019-02-24T03:07:42.785Z,14.30
2019-02-24T03:10:12.065Z,12.47
2019-02-24T03:12:41.339Z,10.45
2019-02-24T03:15:10.622Z,12.80
2019-02-24T03:17:39.886Z,9.88
2019-02-24T03:20:09.174Z,10.93
2019-02-24T03:22:38.456Z,11.78
2019-02-24T03:25:07.737Z,11.65
2019-02-24T03:27:37.001Z,11.55
2019-02-24T03:30:08.817Z,9.40
2019-02-24T03:32:38.426Z,12.60
2019-02-24T03:35:07.681Z,10.85
2019-02-24T03:37:37.021Z,11.45
2019-02-24T03:40:07.395Z,10.80
2019-02-24T03:42:36.657Z,10.18
2019-02-24T03:45:09.353Z,13.30
2019-02-24T03:47:38.624Z,11.53
2019-02-24T03:50:08.672Z,11.12
2019-02-24T03:52:38.923Z,11.12
2019-02-24T03:55:08.197Z,16.65
2019-02-24T03:57:37.535Z,10.32
2019-02-24T04:00:08.054Z,7.97
2019-02-24T04:02:37.321Z,12.20
2019-02-24T04:05:06.672Z,10.03
2019-02-24T04:07:35.942Z,10.28
2019-02-24T04:10:06.666Z,9.33
2019-02-24T04:12:36.330Z,12.58
2019-02-24T04:15:06.186Z,10.35
2019-02-24T04:17:35.453Z,14.10
2019-02-24T04:20:05.347Z,9.48
2019-02-24T04:22:34.613Z,8.50
2019-02-24T04:25:03.954Z,8.98
2019-02-24T04:27:33.230Z,10.95
2019-02-24T04:30:04.046Z,9.20
2019-02-24T04:32:33.624Z,11.50
2019-02-24T04:35:02.909Z,10.72
2019-02-24T04:37:32.176Z,9.80
2019-02-24T04:40:01.480Z,9.85
2019-02-24T04:42:30.741Z,9.05
2019-02-24T04:45:00.030Z,10.65
2019-02-24T04:47:29.297Z,9.90
2019-02-24T04:49:58.914Z,10.15
2019-02-24T04:52:28.523Z,8.73
2019-02-24T04:54:58.136Z,13.20
2019-02-24T04:57:27.413Z,11.50
2019-02-24T04:59:57.053Z,10.68
2019-02-24T05:02:26.317Z,9.73
2019-02-24T05:04:55.594Z,9.30
2019-02-24T05:07:24.871Z,10.08
2019-02-24T05:09:54.163Z,13.55
2019-02-24T05:12:23.438Z,8.33
2019-02-24T05:14:52.719Z,9.98
2019-02-24T05:17:22.246Z,14.23
2019-02-24T05:19:51.522Z,7.92
2019-02-24T05:22:21.066Z,7.60
2019-02-24T05:24:50.345Z,10.38
2019-02-24T05:27:19.628Z,9.40
2019-02-24T05:29:49.153Z,12.13
2019-02-24T05:32:18.666Z,13.43
2019-02-24T05:34:47.942Z,7.87
2019-02-24T05:37:17.483Z,10.08
2019-02-24T05:39:47.098Z,8.03
2019-02-24T05:42:16.603Z,7.70
2019-02-24T05:44:45.886Z,8.90
2019-02-24T05:47:15.163Z,8.53
2019-02-24T05:49:44.432Z,13.30
2019-02-24T05:52:13.710Z,8.03
2019-02-24T05:54:42.985Z,8.13
2019-02-24T05:57:12.260Z,8.25
2019-02-24T05:59:41.530Z,9.58
2019-02-24T06:02:10.805Z,8.95
2019-02-24T06:04:40.073Z,9.23
2019-02-24T06:07:09.602Z,7.42
2019-02-24T06:09:39.926Z,7.58
2019-02-24T06:12:09.525Z,8.70
2019-02-24T06:14:38.793Z,8.63
2019-02-24T06:17:08.057Z,6.30
2019-02-24T06:19:37.639Z,8.15
2019-02-24T06:22:07.141Z,8.18
2019-02-24T06:24:36.417Z,8.90
2019-02-24T06:27:05.695Z,9.05
2019-02-24T06:29:34.984Z,8.23
2019-02-24T06:32:04.250Z,8.23
2019-02-24T06:34:33.573Z,7.85
2019-02-24T06:37:03.158Z,5.83
2019-02-24T06:39:32.417Z,7.20
2019-02-24T06:42:01.688Z,6.35
2019-02-24T06:44:30.968Z,6.92
2019-02-24T06:47:00.240Z,7.97
2019-02-24T06:49:29.511Z,9.98
2019-02-24T06:51:58.777Z,7.65
2019-02-24T06:54:29.377Z,7.45
2019-02-24T06:56:58.663Z,8.90
2019-02-24T06:59:27.921Z,7.67
2019-02-24T07:01:57.217Z,6.92
2019-02-24T07:04:26.464Z,8.68
2019-02-24T07:06:55.746Z,6.37
2019-02-24T07:09:25.010Z,6.60
2019-02-24T07:11:54.301Z,5.83
2019-02-24T07:14:23.562Z,8.85
2019-02-24T07:16:52.854Z,6.60
2019-02-24T07:19:22.125Z,7.17
2019-02-24T07:21:51.408Z,6.60
2019-02-24T07:24:21.745Z,6.45
2019-02-24T07:26:51.046Z,5.72
2019-02-24T07:29:20.617Z,8.13
2019-02-24T07:31:50.225Z,7.85
2019-02-24T07:34:19.485Z,7.35
2019-02-24T07:36:48.764Z,7.20
2019-02-24T07:39:18.033Z,6.37
2019-02-24T07:41:47.362Z,7.90
2019-02-24T07:44:16.898Z,8.33
2019-02-24T07:46:46.165Z,6.35
2019-02-24T07:49:15.490Z,6.03
2019-02-24T07:51:45.037Z,8.80
2019-02-24T07:54:14.316Z,7.25
2019-02-24T07:56:43.854Z,6.50
2019-02-24T07:59:13.125Z,7.40
2019-02-24T08:01:42.660Z,7.00
2019-02-24T08:04:12.466Z,5.55
2019-02-24T08:06:41.737Z,11.93
2019-02-24T08:09:11.021Z,9.35
2019-02-24T08:11:40.291Z,8.55
2019-02-24T08:14:09.810Z,6.45
2019-02-24T08:16:39.073Z,8.08
2019-02-24T08:19:09.707Z,8.20
2019-02-24T08:21:39.016Z,6.28
2019-02-24T08:24:08.300Z,7.20
2019-02-24T08:26:37.809Z,7.45
2019-02-24T08:29:07.420Z,5.62
2019-02-24T08:31:36.721Z,7.17
2019-02-24T08:34:06.035Z,6.05
2019-02-24T08:36:35.302Z,10.03
2019-02-24T08:39:05.417Z,7.70
2019-02-24T08:41:34.778Z,7.08
2019-02-24T08:44:04.059Z,6.03
2019-02-24T08:46:33.334Z,7.97
2019-02-24T08:49:02.955Z,6.60
2019-02-24T08:51:32.233Z,7.22
2019-02-24T08:54:03.139Z,7.80
2019-02-24T08:56:32.408Z,4.63
2019-02-24T08:59:01.993Z,7.80
2019-02-24T09:01:31.297Z,5.92
2019-02-24T09:04:00.584Z,5.00
2019-02-24T09:06:29.900Z,5.47
2019-02-24T09:09:00.541Z,6.23
2019-02-24T09:11:31.513Z,4.00
2019-02-24T09:14:00.768Z,5.27
2019-02-24T09:16:31.121Z,5.80
2019-02-24T09:19:00.410Z,5.57
2019-02-24T09:21:30.755Z,6.20
2019-02-24T09:24:00.333Z,6.70
2019-02-24T09:26:29.938Z,6.57
2019-02-24T09:28:59.650Z,6.10
2019-02-24T09:31:28.934Z,5.13
2019-02-24T09:33:58.218Z,3.73
2019-02-24T09:36:27.577Z,4.27
2019-02-24T09:38:56.861Z,7.23
2019-02-24T09:41:26.461Z,5.10
2019-02-24T09:43:55.760Z,4.93
2019-02-24T09:46:25.020Z,5.10
2019-02-24T09:48:54.570Z,4.10
2019-02-24T09:51:23.841Z,4.10
2019-02-24T09:53:53.139Z,6.33
2019-02-24T09:56:22.415Z,4.53
2019-02-24T09:58:51.698Z,6.47
2019-02-24T10:01:20.986Z,3.90
2019-02-24T10:03:50.291Z,4.60
2019-02-24T10:06:19.565Z,3.73
2019-02-24T10:08:48.833Z,4.00
2019-02-24T10:11:18.112Z,3.43
2019-02-24T10:13:47.388Z,4.40
2019-02-24T10:16:16.668Z,4.37
2019-02-24T10:18:45.945Z,3.50
2019-02-24T10:21:15.481Z,4.57
2019-02-24T10:23:44.841Z,4.87
2019-02-24T10:26:14.130Z,7.03
2019-02-24T10:28:43.569Z,5.13
2019-02-24T10:31:19.649Z,4.23
2019-02-24T10:33:44.892Z,4.80
2019-02-24T10:36:14.173Z,4.60
2019-02-24T10:38:43.441Z,4.63
2019-02-24T10:41:12.726Z,4.30
2019-02-24T10:43:42.597Z,3.80
2019-02-24T10:46:12.177Z,4.43
2019-02-24T10:48:41.781Z,4.53
2019-02-24T10:51:11.066Z,6.07
2019-02-24T10:53:40.355Z,5.10
2019-02-24T10:56:09.637Z,3.47
2019-02-24T10:58:38.918Z,3.00
2019-02-24T11:01:08.368Z,4.57
2019-02-24T11:03:37.701Z,3.80
2019-02-24T11:06:06.977Z,4.53
2019-02-24T11:08:36.259Z,4.07
2019-02-24T11:11:05.799Z,3.87
2019-02-24T11:13:35.073Z,3.80
2019-02-24T11:16:05.495Z,5.90
2019-02-24T11:18:35.029Z,4.03
2019-02-24T11:21:05.449Z,2.70
2019-02-24T11:23:34.724Z,4.83
2019-02-24T11:26:04.031Z,2.57
2019-02-24T11:28:33.286Z,3.13
2019-02-24T11:31:02.574Z,7.03
2019-02-24T11:33:31.845Z,2.93
2019-02-24T11:36:01.138Z,2.93
2019-02-24T11:38:30.400Z,2.43
2019-02-24T11:40:59.968Z,4.20
2019-02-24T11:43:29.241Z,2.93
2019-02-24T11:45:58.779Z,4.47
2019-02-24T11:48:28.057Z,3.13
2019-02-24T11:50:57.581Z,2.70
2019-02-24T11:53:26.849Z,3.57
2019-02-24T11:55:56.485Z,3.77
2019-02-24T11:58:25.760Z,4.37
2019-02-24T12:00:55.034Z,2.47
2019-02-24T12:03:24.593Z,2.67
2019-02-24T12:05:53.863Z,3.70
2019-02-24T12:08:23.397Z,2.73
2019-02-24T12:10:54.038Z,3.93
2019-02-24T12:13:23.317Z,4.43
2019-02-24T12:15:52.589Z,8.83
2019-02-24T12:18:22.849Z,19.60
2019-02-24T12:20:52.125Z,26.47
2019-02-24T12:23:22.394Z,25.03
2019-02-24T12:25:51.678Z,40.80
2019-02-24T12:28:21.033Z,4.33
2019-02-24T12:30:50.596Z,3.00
2019-02-24T12:33:19.875Z,2.50
2019-02-24T12:35:49.144Z,2.70
2019-02-24T12:38:18.426Z,3.13
2019-02-24T12:40:47.696Z,5.10
2019-02-24T12:43:16.977Z,4.13
2019-02-24T12:45:46.244Z,2.47
2019-02-24T12:48:16.824Z,18.80
2019-02-24T12:50:46.102Z,12.37
2019-02-24T12:53:15.638Z,4.83
2019-02-24T12:55:44.918Z,3.43
2019-02-24T12:58:14.197Z,3.30
2019-02-24T13:00:43.456Z,3.00
2019-02-24T13:03:12.737Z,4.20
2019-02-24T13:05:43.153Z,6.40
2019-02-24T13:08:12.501Z,2.77
2019-02-24T13:10:41.772Z,3.40
2019-02-24T13:13:11.057Z,4.47
2019-02-24T13:15:40.316Z,3.23
2019-02-24T13:18:09.871Z,3.37
2019-02-24T13:20:39.181Z,5.40
2019-02-24T13:23:08.465Z,2.80
2019-02-24T13:25:37.743Z,3.37
2019-02-24T13:28:07.026Z,2.40
2019-02-24T13:30:36.569Z,3.20
2019-02-24T13:33:07.464Z,4.40
2019-02-24T13:35:37.000Z,3.13
2019-02-24T13:38:06.281Z,3.30
2019-02-24T13:40:35.546Z,4.80
2019-02-24T13:43:04.825Z,3.40
2019-02-24T13:45:34.102Z,3.10
2019-02-24T13:48:03.381Z,3.27
2019-02-24T13:50:32.644Z,2.60
2019-02-24T13:53:02.228Z,4.20
2019-02-24T13:55:31.835Z,4.70
2019-02-24T13:58:01.122Z,3.30
2019-02-24T14:00:31.529Z,2.40
2019-02-24T14:03:00.821Z,4.87
2019-02-24T14:05:30.088Z,2.93
2019-02-24T14:07:59.365Z,3.70
2019-02-24T14:10:28.644Z,3.17
2019-02-24T14:12:59.010Z,4.60
2019-02-24T14:15:28.604Z,2.13
2019-02-24T14:17:58.947Z,3.30
2019-02-24T14:20:28.221Z,2.17
2019-02-24T14:22:57.489Z,2.50
2019-02-24T14:25:26.838Z,4.70
2019-02-24T14:27:56.125Z,2.83
2019-02-24T14:30:25.398Z,4.50
2019-02-24T14:32:54.674Z,3.67
2019-02-24T14:35:25.922Z,3.67
2019-02-24T14:37:55.185Z,4.13
2019-02-24T14:40:24.468Z,3.77
2019-02-24T14:42:53.743Z,4.20
2019-02-24T14:45:24.162Z,5.07
2019-02-24T14:47:53.804Z,4.03
2019-02-24T14:50:23.414Z,3.47
2019-02-24T14:52:52.681Z,2.33
2019-02-24T14:55:22.223Z,2.80
2019-02-24T14:57:51.489Z,3.00
2019-02-24T15:00:22.758Z,3.20
2019-02-24T15:02:52.020Z,2.40
2019-02-24T15:05:21.535Z,3.10
2019-02-24T15:07:50.811Z,2.30
2019-02-24T15:10:24.146Z,3.30
2019-02-24T15:12:53.577Z,3.47
2019-02-24T15:15:32.866Z,3.17
2019-02-24T15:18:01.830Z,5.30
2019-02-24T15:20:31.096Z,3.40
2019-02-24T15:23:00.377Z,3.00
2019-02-24T15:25:29.914Z,3.67
2019-02-24T15:27:59.188Z,3.87
2019-02-24T15:30:34.362Z,3.60
2019-02-24T15:33:03.811Z,12.87
2019-02-24T15:35:33.089Z,4.00
2019-02-24T15:38:02.356Z,4.27
2019-02-24T15:40:31.634Z,4.53
2019-02-24T15:43:00.909Z,2.90
2019-02-24T15:45:30.232Z,3.47
2019-02-24T15:48:00.370Z,4.90
2019-02-24T15:50:30.732Z,2.93
2019-02-24T15:52:59.991Z,3.10
2019-02-24T15:55:29.606Z,2.97
2019-02-24T15:57:58.883Z,4.20
2019-02-24T16:00:28.166Z,5.00
2019-02-24T16:03:01.553Z,3.30
2019-02-24T16:05:28.972Z,3.20
2019-02-24T16:07:58.573Z,5.07
2019-02-24T16:10:27.844Z,2.80
2019-02-24T16:12:57.384Z,8.03
2019-02-24T16:15:27.997Z,3.20
2019-02-24T16:17:57.266Z,4.77
2019-02-24T16:20:29.073Z,2.43
2019-02-24T16:22:58.359Z,4.00
2019-02-24T16:25:27.712Z,5.63
2019-02-24T16:27:57.282Z,3.73
2019-02-24T16:30:28.991Z,5.93
2019-02-24T16:32:58.283Z,4.50
2019-02-24T16:35:27.644Z,5.40
2019-02-24T16:37:56.989Z,4.27
2019-02-24T16:40:29.633Z,4.90
2019-02-24T16:42:58.965Z,4.90
2019-02-24T16:45:28.246Z,5.77
2019-02-24T16:47:57.583Z,6.10
2019-02-24T16:50:27.829Z,7.20
2019-02-24T16:52:57.105Z,6.37
2019-02-24T16:55:26.376Z,6.93
2019-02-24T16:57:55.680Z,4.50
2019-02-24T17:00:26.372Z,5.83
2019-02-24T17:02:55.670Z,5.73
2019-02-24T17:05:25.296Z,5.87
2019-02-24T17:07:54.905Z,5.60
2019-02-24T17:10:25.670Z,6.33
2019-02-24T17:12:55.005Z,6.70
2019-02-24T17:15:24.280Z,6.93
2019-02-24T17:17:53.571Z,6.60
2019-02-24T17:20:30.217Z,7.30
2019-02-24T17:22:59.823Z,7.50
2019-02-24T17:25:29.109Z,7.37
2019-02-24T17:27:58.389Z,6.83
2019-02-24T17:30:27.666Z,7.33
2019-02-24T17:32:57.235Z,6.47
2019-02-24T17:35:26.834Z,8.70
2019-02-24T17:37:56.439Z,8.70
2019-02-24T17:40:26.790Z,13.97
2019-02-24T17:42:56.384Z,19.53
2019-02-24T17:45:25.661Z,16.43
2019-02-24T17:47:55.128Z,10.30
2019-02-24T17:50:24.814Z,8.90
2019-02-24T17:52:54.148Z,16.60
2019-02-24T17:55:23.425Z,11.97
2019-02-24T17:57:53.000Z,21.60
2019-02-24T18:00:49.670Z,21.07
2019-02-24T18:03:18.960Z,23.40
2019-02-24T18:05:48.248Z,14.60
2019-02-24T18:08:17.602Z,16.10
2019-02-24T18:10:46.992Z,15.83
2019-02-24T18:13:16.287Z,15.67
2019-02-24T18:15:45.642Z,14.33
2019-02-24T18:18:15.307Z,11.77
2019-02-24T18:20:44.640Z,9.60
2019-02-24T18:23:13.925Z,13.00
2019-02-24T18:25:43.474Z,17.43
2019-02-24T18:28:12.763Z,16.10
2019-02-24T18:30:42.047Z,18.77
2019-02-24T18:33:11.360Z,13.60
2019-02-24T18:35:40.642Z,10.60
2019-02-24T18:38:09.970Z,11.07
2019-02-24T18:40:39.240Z,11.70
2019-02-24T18:43:08.778Z,15.30
2019-02-24T18:45:38.095Z,13.90
2019-02-24T18:48:07.377Z,10.33
2019-02-24T18:50:36.655Z,12.60
2019-02-24T18:53:06.511Z,14.50
2019-02-24T18:55:36.039Z,19.63
2019-02-24T18:58:05.383Z,15.43
2019-02-24T19:00:34.709Z,12.33
2019-02-24T19:03:04.444Z,14.33
2019-02-24T19:05:34.686Z,13.03
2019-02-24T19:08:04.254Z,16.27
2019-02-24T19:10:33.605Z,15.30
2019-02-24T19:13:02.968Z,15.90
2019-02-24T19:15:32.278Z,12.60
2019-02-24T19:18:01.573Z,13.60
2019-02-24T19:20:30.841Z,12.67
2019-02-24T19:23:00.138Z,10.38
2019-02-24T19:25:29.406Z,13.33
2019-02-24T19:27:58.702Z,13.53
2019-02-24T19:30:27.983Z,14.93
2019-02-24T19:32:57.257Z,10.10
2019-02-24T19:35:26.546Z,14.53
2019-02-24T19:37:55.838Z,10.67
2019-02-24T19:40:25.358Z,9.20
2019-02-24T19:42:54.653Z,10.77
2019-02-24T19:45:27.133Z,11.70
2019-02-24T19:47:56.425Z,12.28
2019-02-24T19:50:25.703Z,9.98
2019-02-24T19:52:55.248Z,14.87
2019-02-24T19:55:24.523Z,19.77
2019-02-24T19:57:53.805Z,22.67
2019-02-24T20:00:24.678Z,9.80
2019-02-24T20:02:53.960Z,6.57
2019-02-24T20:05:23.412Z,14.98
2019-02-24T20:07:52.705Z,15.83
2019-02-24T20:10:26.976Z,9.48
2019-02-24T20:12:56.258Z,10.90
2019-02-24T20:15:25.536Z,8.13
2019-02-24T20:17:54.832Z,13.07
2019-02-24T20:20:24.113Z,10.43
2019-02-24T20:22:53.711Z,7.90
2019-02-24T20:25:23.941Z,7.10
2019-02-24T20:27:53.213Z,10.82
2019-02-24T20:30:25.000Z,9.03
2019-02-24T20:32:54.276Z,5.78
2019-02-24T20:35:23.905Z,6.07
2019-02-24T20:37:53.171Z,6.70
2019-02-24T20:40:22.455Z,6.20
2019-02-24T20:42:52.012Z,5.67
2019-02-24T20:45:23.603Z,4.60
2019-02-24T20:47:52.871Z,6.37
2019-02-24T20:50:24.665Z,9.98
2019-02-24T20:52:53.951Z,8.27
2019-02-24T20:55:23.233Z,8.85
2019-02-24T20:57:52.826Z,6.97
2019-02-24T21:00:27.521Z,7.08
2019-02-24T21:02:56.798Z,6.67
2019-02-24T21:05:26.077Z,6.83
2019-02-24T21:07:55.351Z,8.63
2019-02-24T21:10:24.648Z,5.37
2019-02-24T21:12:54.174Z,5.87
2019-02-24T21:15:23.477Z,5.40
2019-02-24T21:17:52.749Z,6.30
2019-02-24T21:20:30.163Z,8.85
2019-02-24T21:22:59.792Z,10.53
2019-02-24T21:25:29.396Z,9.88
2019-02-24T21:27:58.997Z,7.97
2019-02-24T21:30:28.306Z,7.55
2019-02-24T21:32:57.896Z,7.00
2019-02-24T21:35:27.502Z,9.75
2019-02-24T21:37:57.002Z,8.80
2019-02-24T21:40:26.292Z,7.03
2019-02-24T21:42:55.597Z,7.45
2019-02-24T21:45:26.921Z,6.85
2019-02-24T21:47:56.196Z,11.33
2019-02-24T21:50:26.449Z,11.18
2019-02-24T21:52:55.716Z,9.23
2019-02-24T21:55:25.010Z,7.55
2019-02-24T21:57:54.590Z,8.28
2019-02-24T22:00:25.115Z,10.00
2019-02-24T22:02:54.381Z,9.55
2019-02-24T22:05:23.787Z,7.15
2019-02-24T22:07:53.330Z,8.48
2019-02-24T22:10:22.933Z,9.50
2019-02-24T22:12:52.890Z,7.67
2019-02-24T22:15:26.354Z,7.47
2019-02-24T22:17:55.678Z,10.95
2019-02-24T22:20:25.090Z,10.35
2019-02-24T22:22:54.684Z,9.43
2019-02-24T22:25:23.983Z,8.40
2019-02-24T22:27:53.264Z,5.67
2019-02-24T22:30:23.398Z,7.25
2019-02-24T22:32:52.674Z,6.35
2019-02-24T22:35:21.949Z,5.60
2019-02-24T22:37:51.221Z,5.78
2019-02-24T22:40:20.793Z,5.90
2019-02-24T22:42:50.401Z,6.25
2019-02-24T22:45:20.423Z,4.70
2019-02-24T22:47:50.043Z,5.72
2019-02-24T22:50:19.321Z,5.53
2019-02-24T22:52:48.597Z,6.10
2019-02-24T22:55:19.017Z,5.03
2019-02-24T22:57:48.290Z,5.37
2019-02-24T23:00:52.396Z,5.40
2019-02-24T23:03:31.237Z,4.72
2019-02-24T23:06:00.592Z,5.60
2019-02-24T23:08:30.202Z,5.60
2019-02-24T23:10:59.727Z,4.40
2019-02-24T23:13:29.309Z,3.37
2019-02-24T23:15:58.593Z,6.22
2019-02-24T23:18:27.875Z,4.08
2019-02-24T23:20:57.154Z,5.37
2019-02-24T23:23:26.433Z,3.90
2019-02-24T23:25:55.708Z,7.97
2019-02-24T23:28:25.344Z,5.10
2019-02-24T23:30:55.105Z,4.22
2019-02-24T23:33:24.379Z,4.12
2019-02-24T23:35:53.703Z,5.65
2019-02-24T23:38:23.033Z,5.97
2019-02-24T23:40:52.322Z,6.42
2019-02-24T23:43:21.609Z,4.75
2019-02-24T23:45:50.905Z,6.57
2019-02-24T23:48:20.171Z,5.03
2019-02-24T23:50:49.754Z,6.05
2019-02-24T23:53:19.038Z,4.70
2019-02-24T23:55:48.662Z,3.77
2019-02-24T23:58:17.932Z,3.30
